Aviation Digital Data Service (ADDS)

Output produced by METARs form (2038 UTC 22 May 2015)
found at http://aviationweather.gov/adds/metars/
 
KYNG 222012Z 2220/2318 30012G18KT P6SM FEW050 
     FM230100 VRB03KT P6SM SKC 
     FM231500 20006KT P6SM SKC